Terminal Aerodrome Forecast
Issued by NWS

Home | Current Version | Previous Version | Text Only | Print | Product List | Glossary On
Versions: 1 2 3 4 5 6 7 8 9 10 11 12 13 14 15 16 17 18
000
FTUS42 KFFC 300520
TAFRYY
TAF
KRYY 300520Z 3006/0106 23004KT P6SM SCT070
     FM301400 24008KT P6SM BKN040
     FM301600 24010KT P6SM VCSH BKN050 PROB30 3018/3024 VRB15G25KT
      4SM TSRA BKN035CB
     FM010000 27008KT P6SM BKN060
      AMD NOT SKED TIL 301200=

USA.gov is the U.S. government's official web portal to all federal, state and local government web resources and services.